Griffithtown, Arkansas
Current Conditions -  °F | °C
As of 5:56 AM on Monday 24 Nov 2014 (Local Time) from KADF Reporting Station
Clear Clear  
Wind Chill: 44°   Ceiling: Unl
Heat Index: 44°   Visibility: 10mi
Dew Point: 38°   Wind: 3mph
Humidity: 80%   Direction: 250°WSW
Pressure: 29.85"   Gusts: NA
Location:  34.0941°N, 93.0475°W
Report Text: KADF 241156Z AUTO 25003KT 10SM CLR 07/03 A2985 RMK AO2 51041 70023 T00660033 10144 20066 SLP122
Loading
Personal Weather Stations






























Interactive Weather Map New forecast layout! Learn more

10-Day Weather Forecast

Advertisements
Track Severe Weather on mobile